createdAt,value
2019-03-01T00:00:11.993Z,10.32
2019-03-01T00:01:11.962Z,10.33
2019-03-01T00:02:11.963Z,10.37
2019-03-01T00:03:11.914Z,10.30
2019-03-01T00:04:11.972Z,10.37
2019-03-01T00:05:11.873Z,10.34
2019-03-01T00:06:11.832Z,10.37
2019-03-01T00:07:11.810Z,10.39
2019-03-01T00:08:11.893Z,10.33
2019-03-01T00:09:11.764Z,10.32
2019-03-01T00:10:11.811Z,10.33
2019-03-01T00:11:11.714Z,10.33
2019-03-01T00:12:11.734Z,10.32
2019-03-01T00:13:11.663Z,10.36
2019-03-01T00:14:11.744Z,10.34
2019-03-01T00:15:11.602Z,10.34
2019-03-01T00:16:11.658Z,10.39
2019-03-01T00:17:11.649Z,10.33
2019-03-01T00:18:11.591Z,10.33
2019-03-01T00:19:11.554Z,10.33
2019-03-01T00:20:11.507Z,10.34
2019-03-01T00:21:11.465Z,10.33
2019-03-01T00:22:11.415Z,10.37
2019-03-01T00:23:11.384Z,10.33
2019-03-01T00:24:11.390Z,10.37
2019-03-01T00:25:11.333Z,10.30
2019-03-01T00:26:11.402Z,10.32
2019-03-01T00:27:11.283Z,10.37
2019-03-01T00:28:11.253Z,10.33
2019-03-01T00:29:11.235Z,10.34
2019-03-01T00:30:11.313Z,10.33
2019-03-01T00:31:11.182Z,10.30
2019-03-01T00:32:11.225Z,10.37
2019-03-01T00:33:11.126Z,10.34
2019-03-01T00:34:11.104Z,10.34
2019-03-01T00:35:11.155Z,10.37
2019-03-01T00:36:11.073Z,10.39
2019-03-01T00:37:11.053Z,10.32
2019-03-01T00:38:10.993Z,10.32
2019-03-01T00:39:10.984Z,10.32
2019-03-01T00:40:10.943Z,10.37
2019-03-01T00:41:10.972Z,10.37
2019-03-01T00:42:10.893Z,10.36
2019-03-01T00:43:10.883Z,10.43
2019-03-01T00:44:10.835Z,10.42
2019-03-01T00:45:10.829Z,10.42
2019-03-01T00:46:10.808Z,10.42
2019-03-01T00:47:10.756Z,10.33
2019-03-01T00:48:10.812Z,10.36
2019-03-01T00:49:10.703Z,10.32
2019-03-01T00:50:10.679Z,10.37
2019-03-01T00:51:10.670Z,10.32
2019-03-01T00:52:10.631Z,10.33
2019-03-01T00:53:10.617Z,10.33
2019-03-01T00:54:10.653Z,10.33
2019-03-01T00:55:10.544Z,10.34
2019-03-01T00:56:10.513Z,10.34
2019-03-01T00:57:10.565Z,10.39
2019-03-01T00:58:10.467Z,10.34
2019-03-01T00:59:10.471Z,10.33
2019-03-01T01:00:10.412Z,10.33
2019-03-01T01:01:10.492Z,10.36
2019-03-01T01:02:10.361Z,10.32
2019-03-01T01:03:10.404Z,10.34
2019-03-01T01:04:10.302Z,10.40
2019-03-01T01:05:10.313Z,10.34
2019-03-01T01:06:10.252Z,10.34
2019-03-01T01:07:10.236Z,10.32
2019-03-01T01:08:10.213Z,10.32
2019-03-01T01:09:10.233Z,10.32
2019-03-01T01:10:10.142Z,10.36
2019-03-01T01:11:10.243Z,10.37
2019-03-01T01:12:10.106Z,10.26
2019-03-01T01:13:10.073Z,10.34
2019-03-01T01:14:10.055Z,10.32
2019-03-01T01:15:10.023Z,10.25
2019-03-01T01:16:10.101Z,10.28
2019-03-01T01:17:09.963Z,10.32
2019-03-01T01:18:09.931Z,10.32
2019-03-01T01:19:09.927Z,10.30
2019-03-01T01:20:09.992Z,10.24
2019-03-01T01:21:09.850Z,10.18
2019-03-01T01:22:09.903Z,10.28
2019-03-01T01:23:09.802Z,10.21
2019-03-01T01:24:09.781Z,10.26
2019-03-01T01:25:09.761Z,10.22
2019-03-01T01:26:09.833Z,10.28
2019-03-01T01:27:09.704Z,10.18
2019-03-01T01:28:09.744Z,10.21
2019-03-01T01:29:09.651Z,10.22
2019-03-01T01:30:09.643Z,10.18
2019-03-01T01:31:09.591Z,10.22
2019-03-01T01:32:09.677Z,10.24
2019-03-01T01:33:09.544Z,10.21
2019-03-01T01:34:09.571Z,10.25
2019-03-01T01:35:09.576Z,10.22
2019-03-01T01:36:09.470Z,10.24
2019-03-01T01:37:09.486Z,10.21
2019-03-01T01:38:09.411Z,10.17
2019-03-01T01:39:09.501Z,10.24
2019-03-01T01:40:09.364Z,10.18
2019-03-01T01:41:09.330Z,10.18
2019-03-01T01:42:09.412Z,10.19
2019-03-01T01:43:09.292Z,10.18
2019-03-01T01:44:09.321Z,10.19
2019-03-01T01:45:09.220Z,10.22
2019-03-01T01:46:09.211Z,10.18
2019-03-01T01:47:09.183Z,10.15
2019-03-01T01:48:09.251Z,10.14
2019-03-01T01:49:09.132Z,10.19
2019-03-01T01:50:09.164Z,10.10
2019-03-01T01:51:09.074Z,10.09
2019-03-01T01:52:09.073Z,10.09
2019-03-01T01:53:09.026Z,10.10
2019-03-01T01:54:09.083Z,9.99
2019-03-01T01:55:08.974Z,10.14
2019-03-01T01:56:08.997Z,10.10
2019-03-01T01:57:08.992Z,10.09
2019-03-01T01:58:08.895Z,10.14
2019-03-01T01:59:08.902Z,10.12
2019-03-01T02:00:08.830Z,10.14
2019-03-01T02:01:08.920Z,10.07
2019-03-01T02:02:08.773Z,10.04
2019-03-01T02:03:08.755Z,10.10
2019-03-01T02:04:08.829Z,10.07
2019-03-01T02:05:08.701Z,10.14
2019-03-01T02:06:08.748Z,10.12
2019-03-01T02:07:08.653Z,10.04
2019-03-01T02:08:08.613Z,10.09
2019-03-01T02:09:08.591Z,10.07
2019-03-01T02:10:08.688Z,10.04
2019-03-01T02:11:08.546Z,10.14
2019-03-01T02:12:08.583Z,10.01
2019-03-01T02:13:08.495Z,10.01
2019-03-01T02:14:08.460Z,10.07
2019-03-01T02:15:08.491Z,10.01
2019-03-01T02:16:08.403Z,10.09
2019-03-01T02:17:08.403Z,10.04
2019-03-01T02:18:08.351Z,10.10
2019-03-01T02:19:08.332Z,10.09
2019-03-01T02:20:08.312Z,10.03
2019-03-01T02:21:08.331Z,10.01
2019-03-01T02:22:08.244Z,10.09
2019-03-01T02:23:08.243Z,10.03
2019-03-01T02:24:08.192Z,10.01
2019-03-01T02:25:08.163Z,10.06
2019-03-01T02:26:08.255Z,10.01
2019-03-01T02:27:08.141Z,9.99
2019-03-01T02:28:08.170Z,10.03
2019-03-01T02:29:08.063Z,10.00
2019-03-01T02:30:08.095Z,10.03
2019-03-01T02:31:08.011Z,9.85
2019-03-01T02:32:08.093Z,9.86
2019-03-01T02:33:07.965Z,9.89
2019-03-01T02:34:08.015Z,9.89
2019-03-01T02:35:07.903Z,9.94
2019-03-01T02:36:07.874Z,9.86
2019-03-01T02:37:07.920Z,9.88
2019-03-01T02:38:07.826Z,9.89
2019-03-01T02:39:07.833Z,9.86
2019-03-01T02:40:07.772Z,9.97
2019-03-01T02:41:07.842Z,9.82
2019-03-01T02:42:07.732Z,9.79
2019-03-01T02:43:07.753Z,9.83
2019-03-01T02:44:07.660Z,9.82
2019-03-01T02:45:07.672Z,9.89
2019-03-01T02:46:07.611Z,9.94
2019-03-01T02:47:07.587Z,9.75
2019-03-01T02:48:07.592Z,9.89
2019-03-01T02:49:07.592Z,9.91
2019-03-01T02:50:07.500Z,9.88
2019-03-01T02:51:07.595Z,9.78
2019-03-01T02:52:07.466Z,9.91
2019-03-01T02:53:07.430Z,9.88
2019-03-01T02:54:07.525Z,9.83
2019-03-01T02:55:07.373Z,9.82
2019-03-01T02:56:07.426Z,9.85
2019-03-01T02:57:07.331Z,9.88
2019-03-01T02:58:07.302Z,9.89
2019-03-01T02:59:07.271Z,9.83
2019-03-01T03:00:07.369Z,9.79
2019-03-01T03:01:07.211Z,9.81
2019-03-01T03:02:07.266Z,9.85
2019-03-01T03:03:07.163Z,9.85
2019-03-01T03:04:07.130Z,9.79
2019-03-01T03:05:07.111Z,9.83
2019-03-01T03:06:07.185Z,9.81
2019-03-01T03:07:07.058Z,9.78
2019-03-01T03:08:07.091Z,9.76
2019-03-01T03:09:07.001Z,9.85
2019-03-01T03:10:07.002Z,9.81
2019-03-01T03:11:06.953Z,9.86
2019-03-01T03:12:07.046Z,9.86
2019-03-01T03:13:06.897Z,9.82
2019-03-01T03:14:06.925Z,9.83
2019-03-01T03:15:06.932Z,9.83
2019-03-01T03:16:06.821Z,9.85
2019-03-01T03:17:06.843Z,9.85
2019-03-01T03:18:06.763Z,9.78
2019-03-01T03:19:06.863Z,9.88
2019-03-01T03:20:06.712Z,9.81
2019-03-01T03:21:06.762Z,9.83
2019-03-01T03:22:06.660Z,9.83
2019-03-01T03:23:06.690Z,9.85
2019-03-01T03:24:06.601Z,9.82
2019-03-01T03:25:06.685Z,9.91
2019-03-01T03:26:06.584Z,9.89
2019-03-01T03:27:06.536Z,9.78
2019-03-01T03:28:06.601Z,9.85
2019-03-01T03:29:06.479Z,9.83
2019-03-01T03:30:06.529Z,9.89
2019-03-01T03:31:06.429Z,9.94
2019-03-01T03:32:06.392Z,9.81
2019-03-01T03:33:06.427Z,9.86
2019-03-01T03:34:06.333Z,9.82
2019-03-01T03:35:06.345Z,9.89
2019-03-01T03:36:06.285Z,9.82
2019-03-01T03:37:06.252Z,9.82
2019-03-01T03:38:06.233Z,9.83
2019-03-01T03:39:06.263Z,9.86
2019-03-01T03:40:06.172Z,9.83
2019-03-01T03:41:06.173Z,9.94
2019-03-01T03:42:06.131Z,9.94
2019-03-01T03:43:06.102Z,9.81
2019-03-01T03:44:06.083Z,9.91
2019-03-01T03:45:06.046Z,9.83
2019-03-01T03:46:06.092Z,9.86
2019-03-01T03:47:05.998Z,9.88
2019-03-01T03:48:05.962Z,9.89
2019-03-01T03:49:05.944Z,9.82
2019-03-01T03:50:06.027Z,9.91
2019-03-01T03:51:05.897Z,9.91
2019-03-01T03:52:05.932Z,9.81
2019-03-01T03:53:05.833Z,9.82
2019-03-01T03:54:05.802Z,9.88
2019-03-01T03:55:05.853Z,9.94
2019-03-01T03:56:05.759Z,9.89
2019-03-01T03:57:05.763Z,9.86
2019-03-01T03:58:05.710Z,9.88
2019-03-01T03:59:05.775Z,9.83
2019-03-01T04:00:05.643Z,9.88
2019-03-01T04:01:05.687Z,9.94
2019-03-01T04:02:05.592Z,9.88
2019-03-01T04:03:05.595Z,9.89
2019-03-01T04:04:05.543Z,9.89
2019-03-01T04:05:05.526Z,9.86
2019-03-01T04:06:05.487Z,9.85
2019-03-01T04:07:05.517Z,9.89
2019-03-01T04:08:05.436Z,9.89
2019-03-01T04:09:06.443Z,9.91
2019-03-01T04:10:05.385Z,9.91
2019-03-01T04:11:05.366Z,9.94
2019-03-01T04:12:05.446Z,9.94
2019-03-01T04:13:05.305Z,9.88
2019-03-01T04:14:05.354Z,9.94
2019-03-01T04:15:05.253Z,9.89
2019-03-01T04:16:05.225Z,9.89
2019-03-01T04:17:05.203Z,9.89
2019-03-01T04:18:05.286Z,9.86
2019-03-01T04:19:05.159Z,9.89
2019-03-01T04:20:05.186Z,9.94
2019-03-01T04:21:05.096Z,9.85
2019-03-01T04:22:05.062Z,9.79
2019-03-01T04:23:05.107Z,9.86
2019-03-01T04:24:05.022Z,9.83
2019-03-01T04:25:05.015Z,9.88
2019-03-01T04:26:04.962Z,9.86
2019-03-01T04:27:04.934Z,9.83
2019-03-01T04:28:04.909Z,9.82
2019-03-01T04:29:04.943Z,9.83
2019-03-01T04:30:04.852Z,9.79
2019-03-01T04:31:04.863Z,9.83
2019-03-01T04:32:04.806Z,9.88
2019-03-01T04:33:04.782Z,9.88
2019-03-01T04:34:06.049Z,9.86
2019-03-01T04:35:04.731Z,9.86
2019-03-01T04:36:04.773Z,9.79
2019-03-01T04:37:04.672Z,9.83
2019-03-01T04:38:04.643Z,9.79
2019-03-01T04:39:04.636Z,9.78
2019-03-01T04:40:06.696Z,9.70
2019-03-01T04:41:04.565Z,9.88
2019-03-01T04:42:04.601Z,9.83
2019-03-01T04:43:04.512Z,9.89
2019-03-01T04:44:04.481Z,9.83
2019-03-01T04:45:04.453Z,9.83
2019-03-01T04:46:04.531Z,9.86
2019-03-01T04:47:04.403Z,9.86
2019-03-01T04:48:04.452Z,9.86
2019-03-01T04:49:04.352Z,9.93
2019-03-01T04:50:04.323Z,9.82
2019-03-01T04:51:04.352Z,9.83
2019-03-01T04:52:04.271Z,9.86
2019-03-01T04:53:04.263Z,9.82
2019-03-01T04:54:04.223Z,9.83
2019-03-01T04:55:04.205Z,9.89
2019-03-01T04:56:04.162Z,9.79
2019-03-01T04:57:04.190Z,9.83
2019-03-01T04:58:04.114Z,9.96
2019-03-01T04:59:04.203Z,9.82
2019-03-01T05:00:04.063Z,9.88
2019-03-01T05:01:04.032Z,9.79
2019-03-01T05:02:04.116Z,9.79
2019-03-01T05:03:03.981Z,9.83
2019-03-01T05:04:04.034Z,9.88
2019-03-01T05:05:03.926Z,9.82
2019-03-01T05:06:03.905Z,9.89
2019-03-01T05:07:03.872Z,9.91
2019-03-01T05:08:03.952Z,9.86
2019-03-01T05:09:03.823Z,9.89
2019-03-01T05:10:03.863Z,9.86
2019-03-01T05:11:03.763Z,9.89
2019-03-01T05:12:03.733Z,9.83
2019-03-01T05:13:03.773Z,9.89
2019-03-01T05:14:03.702Z,9.86
2019-03-01T05:15:03.682Z,9.86
2019-03-01T05:16:03.633Z,9.88
2019-03-01T05:17:03.610Z,9.94
2019-03-01T05:18:03.592Z,9.85
2019-03-01T05:19:03.613Z,9.89
2019-03-01T05:20:03.533Z,9.96
2019-03-01T05:21:03.521Z,9.88
2019-03-01T05:22:03.487Z,9.93
2019-03-01T05:23:03.458Z,9.89
2019-03-01T05:24:03.442Z,9.86
2019-03-01T05:25:03.392Z,9.89
2019-03-01T05:26:03.455Z,9.88
2019-03-01T05:27:03.345Z,9.93
2019-03-01T05:28:03.324Z,9.86
2019-03-01T05:29:03.295Z,9.88
2019-03-01T05:30:03.376Z,9.89
2019-03-01T05:31:03.256Z,9.96
2019-03-01T05:32:03.279Z,9.93
2019-03-01T05:33:03.189Z,9.82
2019-03-01T05:34:03.162Z,9.86
2019-03-01T05:35:10.967Z,9.89
2019-03-01T05:37:07.184Z,9.86
2019-03-01T05:38:07.095Z,9.91
2019-03-01T05:39:07.161Z,9.85
2019-03-01T05:40:07.042Z,9.93
2019-03-01T05:41:07.062Z,9.82
2019-03-01T05:42:06.984Z,9.81
2019-03-01T05:43:06.980Z,9.91
2019-03-01T05:44:06.930Z,9.81
2019-03-01T05:45:06.900Z,9.86
2019-03-01T05:46:06.881Z,9.85
2019-03-01T05:47:06.901Z,9.85
2019-03-01T05:48:06.825Z,9.86
2019-03-01T05:49:06.910Z,9.93
2019-03-01T05:50:07.132Z,9.94
2019-03-01T05:51:06.760Z,9.81
2019-03-01T05:52:06.828Z,9.93
2019-03-01T05:53:06.702Z,9.88
2019-03-01T05:54:06.753Z,9.81
2019-03-01T05:55:06.643Z,9.85
2019-03-01T05:56:06.611Z,9.88
2019-03-01T05:57:06.581Z,9.86
2019-03-01T05:58:16.073Z,9.79
2019-03-01T05:59:07.176Z,9.91
2019-03-01T06:00:06.569Z,9.79
2019-03-01T06:01:06.484Z,9.85
2019-03-01T06:02:06.467Z,9.94
2019-03-01T06:03:06.504Z,9.89
2019-03-01T06:04:06.401Z,9.91
2019-03-01T06:05:06.402Z,9.83
2019-03-01T06:06:06.351Z,9.88
2019-03-01T06:07:06.338Z,9.82
2019-03-01T06:08:06.290Z,9.85
2019-03-01T06:09:06.320Z,9.79
2019-03-01T06:10:06.240Z,9.83
2019-03-01T06:11:06.229Z,9.86
2019-03-01T06:12:06.189Z,9.88
2019-03-01T06:13:06.172Z,9.85
2019-03-01T06:14:06.257Z,9.89
2019-03-01T06:15:06.111Z,9.89
2019-03-01T06:16:06.160Z,9.81
2019-03-01T06:17:06.061Z,9.85
2019-03-01T06:18:06.031Z,9.88
2019-03-01T06:19:06.011Z,9.94
2019-03-01T06:20:06.091Z,9.76
2019-03-01T06:21:05.949Z,9.83
2019-03-01T06:22:05.995Z,9.76
2019-03-01T06:23:05.899Z,9.85
2019-03-01T06:24:05.869Z,9.83
2019-03-01T06:25:05.929Z,9.73
2019-03-01T06:26:05.820Z,9.70
2019-03-01T06:27:05.821Z,9.78
2019-03-01T06:28:05.771Z,9.76
2019-03-01T06:29:05.830Z,9.79
2019-03-01T06:30:05.711Z,9.81
2019-03-01T06:31:05.742Z,9.79
2019-03-01T06:32:05.664Z,9.73
2019-03-01T06:33:05.749Z,9.79
2019-03-01T06:34:05.621Z,9.75
2019-03-01T06:35:05.580Z,9.78
2019-03-01T06:36:05.572Z,9.78
2019-03-01T06:37:05.543Z,9.75
2019-03-01T06:38:05.583Z,9.78
2019-03-01T06:39:05.483Z,9.68
2019-03-01T06:40:05.490Z,9.75
2019-03-01T06:41:05.432Z,9.76
2019-03-01T06:42:05.499Z,9.75
2019-03-01T06:43:05.374Z,9.76
2019-03-01T06:44:05.412Z,9.73
2019-03-01T06:45:05.322Z,9.83
2019-03-01T06:46:05.305Z,9.67
2019-03-01T06:47:05.271Z,9.64
2019-03-01T06:48:05.346Z,9.70
2019-03-01T06:49:05.213Z,9.66
2019-03-01T06:50:05.262Z,9.76
2019-03-01T06:51:05.162Z,9.70
2019-03-01T06:52:05.129Z,9.61
2019-03-01T06:53:05.174Z,9.61
2019-03-01T06:54:05.079Z,9.66
2019-03-01T06:55:05.071Z,9.66
2019-03-01T06:56:06.806Z,9.60
2019-03-01T06:57:05.002Z,9.53
2019-03-01T06:58:05.000Z,9.57
2019-03-01T06:59:04.990Z,9.35
2019-03-01T07:00:04.921Z,9.43
2019-03-01T07:01:04.912Z,9.40
2019-03-01T07:02:04.870Z,9.31
2019-03-01T07:03:04.841Z,9.30
2019-03-01T07:04:04.924Z,9.28
2019-03-01T07:05:04.793Z,9.35
2019-03-01T07:06:04.830Z,9.23
2019-03-01T07:07:04.730Z,9.28
2019-03-01T07:08:04.740Z,9.21
2019-03-01T07:09:04.680Z,9.25
2019-03-01T07:10:04.765Z,9.31
2019-03-01T07:11:04.630Z,9.21
2019-03-01T07:12:04.671Z,9.21
2019-03-01T07:13:04.571Z,9.15
2019-03-01T07:14:04.553Z,9.25
2019-03-01T07:15:07.054Z,9.25
2019-03-01T07:16:04.588Z,9.27
2019-03-01T07:17:04.469Z,9.13
2019-03-01T07:18:04.501Z,9.16
2019-03-01T07:19:04.416Z,9.18
2019-03-01T07:20:04.480Z,9.18
2019-03-01T07:21:04.373Z,9.15
2019-03-01T07:22:04.508Z,9.21
2019-03-01T07:23:04.315Z,9.12
2019-03-01T07:24:04.474Z,9.16
2019-03-01T07:25:04.251Z,9.13
2019-03-01T07:26:04.312Z,9.06
2019-03-01T07:27:04.202Z,9.05
2019-03-01T07:28:04.323Z,9.05
2019-03-01T07:29:04.151Z,9.13
2019-03-01T07:30:04.131Z,9.13
2019-03-01T07:31:04.093Z,9.05
2019-03-01T07:32:04.272Z,9.04
2019-03-01T07:33:04.040Z,9.05
2019-03-01T07:34:04.174Z,9.04
2019-03-01T07:35:03.980Z,8.96
2019-03-01T07:36:03.962Z,8.94
2019-03-01T07:37:03.936Z,8.93
2019-03-01T07:38:03.993Z,8.97
2019-03-01T07:39:03.880Z,8.96
2019-03-01T07:40:03.902Z,9.01
2019-03-01T07:41:03.919Z,8.96
2019-03-01T07:42:03.802Z,8.97
2019-03-01T07:43:03.836Z,8.91
2019-03-01T07:44:03.739Z,9.01
2019-03-01T07:45:03.731Z,8.96
2019-03-01T07:46:03.696Z,8.97
2019-03-01T07:47:03.661Z,8.88
2019-03-01T07:48:03.749Z,8.88
2019-03-01T07:49:03.610Z,8.93
2019-03-01T07:50:03.672Z,8.90
2019-03-01T07:51:03.562Z,8.93
2019-03-01T07:52:04.990Z,8.90
2019-03-01T07:53:04.614Z,8.93
2019-03-01T07:54:03.588Z,8.91
2019-03-01T07:55:03.443Z,8.88
2019-03-01T07:56:04.211Z,8.87
2019-03-01T07:57:03.390Z,8.86
2019-03-01T07:58:03.415Z,8.87
2019-03-01T07:59:03.343Z,8.86
2019-03-01T08:00:03.425Z,8.90
2019-03-01T08:01:03.283Z,8.87
2019-03-01T08:02:04.071Z,8.86
2019-03-01T08:03:03.231Z,8.88
2019-03-01T08:04:03.253Z,8.83
2019-03-01T08:05:04.224Z,8.91
2019-03-01T08:06:03.165Z,8.86
2019-03-01T08:07:03.122Z,8.86
2019-03-01T08:08:03.778Z,8.87
2019-03-01T08:09:03.063Z,8.90
2019-03-01T08:10:03.092Z,8.88
2019-03-01T08:11:03.022Z,8.81
2019-03-01T08:12:03.653Z,8.90
2019-03-01T08:13:02.962Z,8.78
2019-03-01T08:14:02.943Z,8.83
2019-03-01T08:15:04.068Z,8.83
2019-03-01T08:16:02.881Z,8.86
2019-03-01T08:17:03.634Z,8.81
2019-03-01T08:18:04.775Z,8.79
2019-03-01T08:19:02.805Z,8.71
2019-03-01T08:20:02.773Z,8.75
2019-03-01T08:21:06.073Z,8.78
2019-03-01T08:22:02.712Z,8.69
2019-03-01T08:23:02.774Z,8.86
2019-03-01T08:24:02.660Z,8.79
2019-03-01T08:25:02.750Z,8.78
2019-03-01T08:26:03.488Z,8.81
2019-03-01T08:27:06.455Z,8.76
2019-03-01T08:28:02.551Z,8.69
2019-03-01T08:29:02.611Z,8.76
2019-03-01T08:30:02.510Z,8.63
2019-03-01T08:31:02.472Z,8.66
2019-03-01T08:32:02.522Z,8.69
2019-03-01T08:33:02.713Z,8.69
2019-03-01T08:34:02.460Z,8.69
2019-03-01T08:35:02.365Z,8.68
2019-03-01T08:36:05.426Z,8.76
2019-03-01T08:37:02.309Z,8.75
2019-03-01T08:38:02.367Z,8.69
2019-03-01T08:39:04.927Z,8.69
2019-03-01T08:40:02.277Z,8.66
2019-03-01T08:41:02.204Z,8.71
2019-03-01T08:42:02.192Z,8.72
2019-03-01T08:43:02.140Z,8.69
2019-03-01T08:44:02.201Z,8.72
2019-03-01T08:45:02.803Z,8.76
2019-03-01T08:46:05.336Z,8.72
2019-03-01T08:47:02.127Z,8.75
2019-03-01T08:48:02.069Z,8.72
2019-03-01T08:49:02.035Z,8.79
2019-03-01T08:50:01.950Z,8.81
2019-03-01T08:51:01.942Z,8.79
2019-03-01T08:52:02.416Z,8.69
2019-03-01T08:53:01.963Z,8.72
2019-03-01T08:54:01.843Z,8.71
2019-03-01T08:55:03.631Z,8.72
2019-03-01T08:56:01.803Z,8.68
2019-03-01T08:57:01.768Z,8.81
2019-03-01T08:58:03.370Z,8.78
2019-03-01T08:59:01.793Z,8.71
2019-03-01T09:00:02.418Z,8.72
2019-03-01T09:01:04.023Z,8.68
2019-03-01T09:02:01.644Z,8.81
2019-03-01T09:03:01.621Z,8.78
2019-03-01T09:04:01.582Z,8.71
2019-03-01T09:05:01.726Z,8.81
2019-03-01T09:06:01.532Z,8.73
2019-03-01T09:07:01.646Z,8.76
2019-03-01T09:08:01.461Z,8.73
2019-03-01T09:09:01.454Z,8.69
2019-03-01T09:10:01.415Z,8.76
2019-03-01T09:11:01.473Z,8.76
2019-03-01T09:12:01.372Z,8.69
2019-03-01T09:13:01.331Z,8.73
2019-03-01T09:14:01.301Z,8.75
2019-03-01T09:15:04.478Z,8.79
2019-03-01T09:16:01.254Z,8.81
2019-03-01T09:17:01.311Z,8.76
2019-03-01T09:18:01.203Z,8.72
2019-03-01T09:19:01.164Z,8.69
2019-03-01T09:20:01.334Z,8.63
2019-03-01T09:21:05.640Z,8.65
2019-03-01T09:22:01.141Z,8.65
2019-03-01T09:23:04.910Z,8.62
2019-03-01T09:24:01.031Z,8.69
2019-03-01T09:25:02.523Z,8.58
2019-03-01T09:26:00.974Z,8.60
2019-03-01T09:27:01.072Z,8.63
2019-03-01T09:28:00.922Z,8.65
2019-03-01T09:29:00.889Z,8.63
2019-03-01T09:30:03.655Z,8.55
2019-03-01T09:31:00.929Z,8.55
2019-03-01T09:32:00.811Z,8.62
2019-03-01T09:33:00.813Z,8.65
2019-03-01T09:34:00.762Z,8.62
2019-03-01T09:35:00.942Z,8.55
2019-03-01T09:36:00.727Z,8.62
2019-03-01T09:37:00.682Z,8.60
2019-03-01T09:38:00.745Z,8.60
2019-03-01T09:39:00.620Z,8.57
2019-03-01T09:40:05.523Z,8.65
2019-03-01T09:41:01.313Z,8.55
2019-03-01T09:42:04.391Z,8.55
2019-03-01T09:43:01.129Z,8.65
2019-03-01T09:44:02.973Z,8.55
2019-03-01T09:45:00.475Z,8.69
2019-03-01T09:46:00.432Z,8.73
2019-03-01T09:47:01.627Z,8.65
2019-03-01T09:48:00.372Z,8.60
2019-03-01T09:49:00.410Z,8.69
2019-03-01T09:50:01.221Z,8.71
2019-03-01T09:51:00.294Z,8.75
2019-03-01T09:52:00.272Z,8.72
2019-03-01T09:53:00.341Z,8.72
2019-03-01T09:54:00.222Z,8.69
2019-03-01T09:55:00.243Z,8.73
2019-03-01T09:56:00.242Z,8.73
2019-03-01T09:57:00.162Z,8.81
2019-03-01T09:58:00.103Z,8.78
2019-03-01T09:59:00.169Z,8.79
2019-03-01T10:00:00.058Z,8.79
2019-03-01T10:01:00.085Z,8.86
2019-03-01T10:01:59.991Z,8.87
2019-03-01T10:02:59.993Z,8.96
2019-03-01T10:03:59.946Z,9.02
2019-03-01T10:05:00.012Z,8.94
2019-03-01T10:05:59.892Z,8.94
2019-03-01T10:06:59.862Z,8.99
2019-03-01T10:07:59.830Z,8.96
2019-03-01T10:08:59.831Z,8.84
2019-03-01T10:09:59.784Z,8.83
2019-03-01T10:10:59.855Z,8.93
2019-03-01T10:11:59.742Z,8.90
2019-03-01T10:12:59.702Z,8.96
2019-03-01T10:13:59.762Z,8.97
2019-03-01T10:14:59.639Z,8.99
2019-03-01T10:15:59.681Z,8.96
2019-03-01T10:16:59.592Z,9.01
2019-03-01T10:17:59.560Z,8.94
2019-03-01T10:18:59.541Z,8.96
2019-03-01T10:19:59.601Z,9.01
2019-03-01T10:20:59.480Z,9.01
2019-03-01T10:21:59.510Z,8.97
2019-03-01T10:22:59.433Z,8.96
2019-03-01T10:23:59.438Z,8.87
2019-03-01T10:24:59.379Z,8.90
2019-03-01T10:25:59.441Z,8.84
2019-03-01T10:26:59.321Z,8.83
2019-03-01T10:27:59.351Z,8.87
2019-03-01T10:28:59.259Z,8.90
2019-03-01T10:29:59.259Z,8.81
2019-03-01T10:30:59.211Z,8.86
2019-03-01T10:31:59.281Z,8.86
2019-03-01T10:32:59.161Z,8.88
2019-03-01T10:33:59.134Z,8.90
2019-03-01T10:34:59.114Z,8.91
2019-03-01T10:35:59.104Z,8.78
2019-03-01T10:36:59.054Z,8.84
2019-03-01T10:37:59.110Z,8.84
2019-03-01T10:38:58.991Z,8.84
2019-03-01T10:39:58.972Z,8.90
2019-03-01T10:40:58.942Z,8.86
2019-03-01T10:41:58.939Z,8.84
2019-03-01T10:42:58.891Z,8.83
2019-03-01T10:43:58.949Z,8.84
2019-03-01T10:44:58.860Z,8.87
2019-03-01T10:45:58.809Z,8.88
2019-03-01T10:46:59.611Z,8.84
2019-03-01T10:47:58.754Z,8.86
2019-03-01T10:48:58.779Z,8.87
2019-03-01T10:49:58.700Z,8.93
2019-03-01T10:50:58.671Z,9.01
2019-03-01T10:51:58.700Z,8.96
2019-03-01T10:52:58.632Z,8.99
2019-03-01T10:53:58.610Z,8.99
2019-03-01T10:54:58.568Z,9.01
2019-03-01T10:55:58.539Z,8.96
2019-03-01T10:56:58.521Z,8.93
2019-03-01T10:57:58.541Z,9.01
2019-03-01T10:58:58.544Z,8.97
2019-03-01T10:59:58.450Z,9.09
2019-03-01T11:00:58.402Z,9.09
2019-03-01T11:01:58.481Z,9.06
2019-03-01T11:02:58.369Z,9.12
2019-03-01T11:03:58.381Z,9.16
2019-03-01T11:04:58.292Z,9.21
2019-03-01T11:05:58.407Z,9.21
2019-03-01T11:06:58.298Z,9.15
2019-03-01T11:07:58.210Z,9.20
2019-03-01T11:08:58.210Z,9.13
2019-03-01T11:09:58.150Z,9.13
2019-03-01T11:10:58.230Z,9.16
2019-03-01T11:11:58.129Z,9.18
2019-03-01T11:12:58.078Z,9.16
2019-03-01T11:13:58.139Z,9.12
2019-03-01T11:14:58.033Z,9.23
2019-03-01T11:15:58.050Z,9.16
2019-03-01T11:16:57.969Z,9.09
2019-03-01T11:17:57.944Z,9.13
2019-03-01T11:18:57.910Z,9.16
2019-03-01T11:19:57.979Z,9.13
2019-03-01T11:20:57.858Z,9.20
2019-03-01T11:21:57.888Z,9.16
2019-03-01T11:22:57.900Z,9.09
2019-03-01T11:23:57.781Z,9.05
2019-03-01T11:24:57.818Z,8.97
2019-03-01T11:25:57.719Z,8.97
2019-03-01T11:26:57.719Z,9.06
2019-03-01T11:27:57.669Z,9.06
2019-03-01T11:28:57.649Z,9.09
2019-03-01T11:29:57.643Z,9.12
2019-03-01T11:30:57.589Z,9.02
2019-03-01T11:31:57.658Z,9.10
2019-03-01T11:32:57.545Z,9.10
2019-03-01T11:33:57.522Z,9.04
2019-03-01T11:36:04.821Z,8.99
2019-03-01T11:38:01.554Z,8.97
2019-03-01T11:39:01.525Z,9.06
2019-03-01T11:40:01.421Z,8.96
2019-03-01T11:41:01.429Z,9.09
2019-03-01T11:42:01.377Z,9.10
2019-03-01T11:43:01.443Z,9.04
2019-03-01T11:44:01.340Z,9.02
2019-03-01T11:45:01.294Z,9.01
2019-03-01T11:46:01.360Z,9.01
2019-03-01T11:47:01.240Z,8.99
2019-03-01T11:48:01.341Z,9.01
2019-03-01T11:49:01.181Z,8.94
2019-03-01T11:50:01.150Z,8.97
2019-03-01T11:51:01.131Z,9.01
2019-03-01T11:52:01.273Z,9.02
2019-03-01T11:53:01.071Z,8.97
2019-03-01T11:54:01.180Z,9.05
2019-03-01T11:55:01.025Z,9.05
2019-03-01T11:56:00.994Z,9.04
2019-03-01T11:57:01.103Z,9.06
2019-03-01T11:58:00.940Z,9.10
2019-03-01T11:59:01.015Z,9.09
2019-03-01T12:00:00.889Z,9.21
2019-03-01T12:01:00.860Z,9.15
2019-03-01T12:02:00.835Z,9.02
2019-03-01T12:03:00.932Z,9.06
2019-03-01T12:04:00.773Z,9.20
2019-03-01T12:05:01.871Z,9.06
2019-03-01T12:06:00.721Z,9.06
2019-03-01T12:07:00.701Z,9.10
2019-03-01T12:08:00.670Z,9.15
2019-03-01T12:09:00.797Z,9.04
2019-03-01T12:10:00.618Z,9.10
2019-03-01T12:11:00.797Z,9.09
2019-03-01T12:12:00.563Z,9.10
2019-03-01T12:13:00.531Z,9.10
2019-03-01T12:14:00.715Z,9.09
2019-03-01T12:15:00.489Z,8.97
2019-03-01T12:16:00.619Z,8.84
2019-03-01T12:17:00.419Z,8.69
2019-03-01T12:18:00.400Z,8.62
2019-03-01T12:19:00.542Z,8.65
2019-03-01T12:20:00.340Z,8.55
2019-03-01T12:21:00.449Z,8.54
2019-03-01T12:22:00.294Z,8.48
2019-03-01T12:23:00.460Z,8.58
2019-03-01T12:24:00.231Z,8.58
2019-03-01T12:25:00.370Z,8.53
2019-03-01T12:26:00.180Z,8.62
2019-03-01T12:27:00.281Z,8.60
2019-03-01T12:28:00.133Z,8.55
2019-03-01T12:29:00.112Z,8.51
2019-03-01T12:30:00.076Z,8.51
2019-03-01T12:31:02.018Z,8.54
2019-03-01T12:32:00.029Z,8.48
2019-03-01T12:33:00.020Z,8.53
2019-03-01T12:33:59.965Z,8.45
2019-03-01T12:34:59.942Z,8.53
2019-03-01T12:35:59.939Z,8.48
2019-03-01T12:36:59.885Z,8.44
2019-03-01T12:37:59.966Z,8.50
2019-03-01T12:38:59.843Z,8.51
2019-03-01T12:39:59.802Z,8.33
2019-03-01T12:40:59.771Z,8.37
2019-03-01T12:41:59.781Z,8.37
2019-03-01T12:42:59.733Z,8.35
2019-03-01T12:43:59.791Z,8.30
2019-03-01T12:44:59.663Z,8.37
2019-03-01T12:45:59.648Z,8.40
2019-03-01T12:46:59.711Z,8.30
2019-03-01T12:47:59.579Z,8.30
2019-03-01T12:48:59.619Z,8.28
2019-03-01T12:50:00.099Z,8.35
2019-03-01T12:50:59.500Z,8.33
2019-03-01T12:51:59.479Z,8.28
2019-03-01T12:52:59.562Z,8.25
2019-03-01T12:53:59.422Z,8.22
2019-03-01T12:54:59.464Z,8.28
2019-03-01T12:55:59.359Z,8.17
2019-03-01T12:56:59.340Z,8.22
2019-03-01T12:57:59.382Z,8.26
2019-03-01T12:58:59.281Z,8.26
2019-03-01T12:59:59.390Z,8.12
2019-03-01T13:00:59.231Z,8.22
2019-03-01T13:01:59.200Z,8.25
2019-03-01T13:02:59.168Z,8.25
2019-03-01T13:03:59.225Z,8.15
2019-03-01T13:04:59.122Z,8.20
2019-03-01T13:06:00.667Z,8.17
2019-03-01T13:06:59.059Z,8.18
2019-03-01T13:07:59.044Z,8.14
2019-03-01T13:08:59.012Z,8.22
2019-03-01T13:10:03.352Z,8.26
2019-03-01T13:10:58.951Z,8.21
2019-03-01T13:11:59.072Z,8.20
2019-03-01T13:13:01.921Z,8.22
2019-03-01T13:13:58.979Z,8.28
2019-03-01T13:14:58.844Z,8.28
2019-03-01T13:15:58.903Z,8.21